Time;durP1;ratioP1;P1;durP2;ratioP2;P2;SDS_P1;SDS_P2;PMS_P1;PMS_P2;Temp;Humidity;BMP_temperature;BMP_pressure;BME280_temperature;BME280_humidity;BME280_pressure;Samples;Min_cycle;Max_cycle;Signal;HPM_P1;HPM_P2
2024/01/17 00:02:11;;;;;;;38.50;23.92;;;;;;;2.30;100.00;97799.13;5062559;28;20039;-71
2024/01/17 00:04:39;;;;;;;37.80;24.13;;;;;;;2.26;100.00;97795.97;5077906;28;20852;-70
2024/01/17 00:07:04;;;;;;;33.17;22.88;;;;;;;2.11;100.00;97740.66;5087884;28;20133;-69
2024/01/17 00:09:32;;;;;;;36.83;25.05;;;;;;;2.44;100.00;97770.69;5079889;28;21151;-68
2024/01/17 00:11:58;;;;;;;40.08;23.90;;;;;;;2.55;100.00;97751.13;5074420;28;20036;-70
2024/01/17 00:14:23;;;;;;;39.10;24.27;;;;;;;2.13;100.00;97710.59;5063852;28;20531;-70
2024/01/17 00:16:53;;;;;;;37.33;23.52;;;;;;;2.57;100.00;97759.50;5061366;28;20031;-72
2024/01/17 00:19:19;;;;;;;38.22;23.08;;;;;;;2.69;100.00;97769.69;5050452;28;20428;-69
2024/01/17 00:21:44;;;;;;;35.55;22.02;;;;;;;2.61;100.00;97771.19;5095417;27;20032;-71
2024/01/17 00:24:10;;;;;;;37.13;22.58;;;;;;;2.43;100.00;97743.41;5080908;28;20047;-68
2024/01/17 00:26:38;;;;;;;38.55;23.88;;;;;;;2.77;100.00;97801.66;5057023;28;20024;-70
2024/01/17 00:29:06;;;;;;;36.15;22.55;;;;;;;2.80;100.00;97773.19;5056746;28;20029;-68
2024/01/17 00:31:34;;;;;;;36.00;22.45;;;;;;;2.88;100.00;97753.72;5059208;28;20027;-71
2024/01/17 00:34:02;;;;;;;36.50;23.17;;;;;;;3.03;100.00;97753.44;5072191;28;20039;-69
2024/01/17 00:36:29;;;;;;;39.20;23.65;;;;;;;3.00;100.00;97746.00;5076946;28;20026;-68
2024/01/17 00:38:55;;;;;;;33.67;22.33;;;;;;;3.05;100.00;97751.59;5071372;28;20135;-72
2024/01/17 00:41:20;;;;;;;36.17;22.45;;;;;;;3.04;100.00;97747.38;5060570;28;20031;-73
2024/01/17 00:43:45;;;;;;;36.15;22.20;;;;;;;2.85;100.00;97704.34;5087821;28;20038;-68
2024/01/17 00:46:11;;;;;;;36.95;21.88;;;;;;;3.21;100.00;97749.47;5056097;28;20024;-72
2024/01/17 00:48:36;;;;;;;34.30;22.50;;;;;;;3.25;100.00;97734.63;5058664;28;20058;-67
2024/01/17 00:51:04;;;;;;;34.17;22.02;;;;;;;3.22;100.00;97719.44;5072541;28;20424;-71
2024/01/17 00:53:30;;;;;;;33.25;22.80;;;;;;;3.25;100.00;97716.66;5077606;28;20036;-67
2024/01/17 00:55:58;;;;;;;34.83;22.30;;;;;;;3.25;100.00;97712.31;5073824;28;20089;-71
2024/01/17 00:58:23;;;;;;;32.80;21.55;;;;;;;3.13;100.00;97727.88;5095112;27;20116;-68
2024/01/17 01:00:48;;;;;;;37.00;24.02;;;;;;;3.22;100.00;97740.00;5093182;28;20106;-68
2024/01/17 01:03:14;;;;;;;37.53;24.25;;;;;;;2.88;100.00;97668.13;5070339;28;20036;-68
2024/01/17 01:05:42;;;;;;;37.30;23.30;;;;;;;3.27;100.00;97728.44;5079282;28;20253;-69
2024/01/17 01:08:07;;;;;;;39.47;24.23;;;;;;;3.25;100.00;97742.34;5054176;28;20443;-68
2024/01/17 01:10:32;;;;;;;36.80;24.65;;;;;;;3.21;100.00;97733.22;5080822;28;20020;-68
2024/01/17 01:13:00;;;;;;;36.65;23.83;;;;;;;3.23;100.00;97727.03;5051855;28;20039;-70
2024/01/17 01:15:25;;;;;;;36.10;22.67;;;;;;;3.33;100.00;97718.63;5063196;27;20023;-69
2024/01/17 01:17:53;;;;;;;38.40;24.38;;;;;;;3.17;100.00;97704.38;5083176;28;20402;-69
2024/01/17 01:20:21;;;;;;;35.85;22.95;;;;;;;3.17;100.00;97706.16;5060115;28;20035;-71
2024/01/17 01:22:46;;;;;;;36.70;24.40;;;;;;;3.25;100.00;97712.31;5082307;28;20027;-69
2024/01/17 01:25:11;;;;;;;39.80;24.23;;;;;;;2.96;100.00;97663.22;5054447;28;20101;-68
2024/01/17 01:27:39;;;;;;;34.03;23.02;;;;;;;2.73;100.00;97634.19;5067995;28;20134;-67
2024/01/17 01:30:10;;;;;;;38.42;24.27;;;;;;;2.98;100.00;97670.81;5072560;28;20031;-66
2024/01/17 01:32:36;;;;;;;40.80;25.50;;;;;;;3.16;100.00;97702.78;5062356;28;20082;-70
2024/01/17 01:35:01;;;;;;;40.80;25.10;;;;;;;3.07;100.00;97677.81;5054830;28;20034;-69
2024/01/17 01:37:26;;;;;;;39.72;25.17;;;;;;;3.18;100.00;97693.19;5065747;28;20136;-69
2024/01/17 01:39:54;;;;;;;40.13;24.23;;;;;;;2.79;100.00;97644.00;5070031;28;20537;-69
2024/01/17 01:42:19;;;;;;;38.45;25.98;;;;;;;3.01;100.00;97701.38;5057617;28;20036;-69
2024/01/17 01:44:45;;;;;;;36.97;24.52;;;;;;;2.91;100.00;97718.44;5059109;28;20027;-68
2024/01/17 01:47:11;;;;;;;40.05;25.48;;;;;;;3.00;100.00;97695.44;5064323;28;20478;-67
2024/01/17 01:49:39;;;;;;;39.83;25.65;;;;;;;3.06;100.00;97682.09;5063826;27;20397;-70
2024/01/17 01:52:08;;;;;;;37.80;25.05;;;;;;;3.06;100.00;97691.56;5058254;28;20044;-68
2024/01/17 01:54:34;;;;;;;39.53;24.13;;;;;;;3.18;100.00;97693.19;5064329;28;20798;-71
2024/01/17 01:57:00;;;;;;;40.97;24.45;;;;;;;3.16;100.00;97691.66;5075388;28;20039;-68
2024/01/17 01:59:28;;;;;;;38.70;23.90;;;;;;;3.07;100.00;97660.63;5066211;28;20718;-71
2024/01/17 02:01:54;;;;;;;37.17;23.42;;;;;;;3.02;100.00;97655.03;5085766;28;20134;-68
2024/01/17 02:04:20;;;;;;;36.00;22.65;;;;;;;3.20;100.00;97688.75;5075185;28;20027;-72
2024/01/17 02:06:49;;;;;;;36.03;23.65;;;;;;;2.93;100.00;97629.28;5096925;27;20087;-70
2024/01/17 02:09:15;;;;;;;40.22;25.85;;;;;;;3.33;100.00;97669.78;5062043;28;20036;-68
2024/01/17 02:11:40;;;;;;;38.35;23.80;;;;;;;3.23;100.00;97673.09;5061468;28;20036;-67
2024/01/17 02:14:06;;;;;;;37.72;23.70;;;;;;;3.13;100.00;97673.94;5082243;28;20051;-68
2024/01/17 02:16:34;;;;;;;39.83;24.65;;;;;;;3.22;100.00;97686.06;5059372;28;20030;-67
2024/01/17 02:18:59;;;;;;;35.75;23.75;;;;;;;3.15;100.00;97679.75;5061607;28;20475;-69
2024/01/17 02:21:27;;;;;;;39.08;24.70;;;;;;;3.06;100.00;97653.03;5080323;28;20045;-70
2024/01/17 02:23:52;;;;;;;39.65;24.33;;;;;;;2.88;100.00;97634.75;5060403;27;20496;-70
2024/01/17 02:26:18;;;;;;;36.13;23.55;;;;;;;2.82;100.00;97614.69;5067829;28;20618;-68
2024/01/17 02:28:44;;;;;;;35.28;23.13;;;;;;;3.15;100.00;97665.16;5079137;27;20760;-71
2024/01/17 02:31:14;;;;;;;37.40;24.23;;;;;;;3.22;100.00;97663.75;5065075;27;20072;-69
2024/01/17 02:33:40;;;;;;;40.65;25.05;;;;;;;3.24;100.00;97661.84;5075619;28;20697;-70
2024/01/17 02:36:06;;;;;;;37.97;24.70;;;;;;;3.16;100.00;97651.38;5064240;28;20088;-68
2024/01/17 02:38:31;;;;;;;39.45;25.33;;;;;;;3.27;100.00;97661.63;5057917;28;20062;-69
2024/01/17 02:40:56;;;;;;;38.80;24.75;;;;;;;3.22;100.00;97663.75;5056741;27;20034;-69
2024/01/17 02:43:22;;;;;;;36.97;22.98;;;;;;;3.05;100.00;97643.72;5080647;28;20029;-68
2024/01/17 02:45:47;;;;;;;36.03;23.40;;;;;;;2.98;100.00;97645.13;5057681;28;21006;-67
2024/01/17 02:48:13;;;;;;;40.15;24.92;;;;;;;3.02;100.00;97655.03;5088392;28;20024;-66
2024/01/17 02:50:39;;;;;;;39.42;25.73;;;;;;;3.13;100.00;97661.09;5055411;28;20084;-70
2024/01/17 02:53:06;;;;;;;37.50;23.70;;;;;;;3.06;100.00;97666.69;5060282;28;20031;-70
2024/01/17 02:55:31;;;;;;;36.70;22.58;;;;;;;2.93;100.00;97663.47;5077185;28;20035;-68
2024/01/17 02:57:57;;;;;;;35.80;22.23;;;;;;;2.98;100.00;97669.06;5073555;27;20029;-70
2024/01/17 03:00:22;;;;;;;32.85;22.08;;;;;;;3.06;100.00;97658.19;5084139;28;20036;-68
2024/01/17 03:02:48;;;;;;;33.15;20.80;;;;;;;3.20;100.00;97657.09;5096433;27;20054;-70
2024/01/17 03:05:16;;;;;;;33.45;21.15;;;;;;;3.20;100.00;97660.47;5097472;27;20038;-68
2024/01/17 03:07:42;;;;;;;35.70;22.08;;;;;;;3.26;100.00;97672.81;5070367;28;20179;-69
2024/01/17 03:10:09;;;;;;;36.85;21.05;;;;;;;2.84;100.00;97623.91;5078050;28;20719;-71
2024/01/17 03:12:36;;;;;;;33.22;21.05;;;;;;;3.23;100.00;97673.09;5074902;28;20128;-73
2024/01/17 03:15:02;;;;;;;34.60;22.15;;;;;;;3.13;100.00;97664.47;5075212;28;20123;-70
2024/01/17 03:17:27;;;;;;;33.78;21.85;;;;;;;3.06;100.00;97645.34;5076268;28;20031;-68
2024/01/17 03:19:54;;;;;;;33.75;21.10;;;;;;;3.15;100.00;97652.31;5058052;28;20040;-69
2024/01/17 03:22:19;;;;;;;36.47;23.70;;;;;;;3.15;100.00;97647.19;5057745;28;20030;-68
2024/01/17 03:24:47;;;;;;;36.05;22.60;;;;;;;3.14;100.00;97637.84;5096103;28;20399;-70
2024/01/17 03:27:17;;;;;;;36.38;23.02;;;;;;;3.26;100.00;97643.75;5074942;27;20032;-69
2024/01/17 03:29:43;;;;;;;34.33;22.98;;;;;;;3.20;100.00;97644.25;5064197;28;20023;-67
2024/01/17 03:32:08;;;;;;;34.70;21.90;;;;;;;2.74;100.00;97566.53;5058152;28;20123;-69
2024/01/17 03:34:39;;;;;;;33.25;21.42;;;;;;;3.13;100.00;97600.25;5078398;28;20028;-68
2024/01/17 03:37:04;;;;;;;34.10;21.15;;;;;;;2.94;100.00;97558.97;5063728;28;20050;-69
2024/01/17 03:39:32;;;;;;;34.05;21.60;;;;;;;3.18;100.00;97598.13;5078053;28;20484;-69
2024/01/17 03:42:00;;;;;;;32.40;20.10;;;;;;;3.21;100.00;97585.06;5060802;27;20039;-69
2024/01/17 03:44:30;;;;;;;32.13;20.27;;;;;;;3.29;100.00;97591.31;5060436;27;20077;-71
2024/01/17 03:46:55;;;;;;;32.75;19.63;;;;;;;3.33;100.00;97572.94;5074830;28;20031;-68
2024/01/17 03:49:21;;;;;;;31.02;18.33;;;;;;;3.34;100.00;97559.19;5077240;27;20024;-66
2024/01/17 03:51:48;;;;;;;31.80;20.23;;;;;;;3.27;100.00;97548.56;5062673;28;20039;-68
2024/01/17 03:54:14;;;;;;;29.65;19.10;;;;;;;3.33;100.00;97549.03;5079101;28;20020;-69
2024/01/17 03:56:39;;;;;;;29.52;18.63;;;;;;;3.35;100.00;97560.00;5071832;28;20782;-66
2024/01/17 03:59:05;;;;;;;32.25;20.65;;;;;;;3.40;100.00;97547.59;5080429;28;20027;-68
2024/01/17 04:01:33;;;;;;;32.92;20.33;;;;;;;3.03;100.00;97496.59;5064435;28;20521;-67
2024/01/17 04:03:58;;;;;;;32.33;20.00;;;;;;;3.38;100.00;97564.88;5056342;28;20034;-70
2024/01/17 04:06:25;;;;;;;33.03;20.48;;;;;;;3.43;100.00;97557.59;5058289;28;20100;-71
2024/01/17 04:08:53;;;;;;;31.30;20.48;;;;;;;3.40;100.00;97550.16;5059491;28;20024;-68
2024/01/17 04:11:20;;;;;;;29.13;18.70;;;;;;;3.37;100.00;97538.34;5061978;28;20040;-68
2024/01/17 04:13:46;;;;;;;29.45;18.77;;;;;;;3.32;100.00;97522.50;5075405;28;20652;-68
2024/01/17 04:16:17;;;;;;;30.92;19.60;;;;;;;3.19;100.00;97503.88;5081740;28;20077;-68
2024/01/17 04:18:42;;;;;;;29.95;19.00;;;;;;;3.48;100.00;97522.06;5058274;27;20440;-68
2024/01/17 04:21:18;;;;;;;27.90;18.63;;;;;;;3.44;100.00;97500.13;5075093;28;20159;-67
2024/01/17 04:23:47;;;;;;;28.30;17.92;;;;;;;3.06;100.00;97435.53;5086952;28;20817;-70
2024/01/17 04:26:24;;;;;;;31.50;19.98;;;;;;;3.37;100.00;97494.66;5089543;28;20062;-67
2024/01/17 04:28:53;;;;;;;31.92;17.88;;;;;;;3.41;100.00;97496.06;5060678;28;20067;-69
2024/01/17 04:31:32;;;;;;;30.20;18.70;;;;;;;3.45;100.00;97510.28;5052424;28;20031;-69
2024/01/17 04:33:58;;;;;;;29.17;17.70;;;;;;;3.44;100.00;97513.78;5075469;28;20031;-67
2024/01/17 04:36:29;;;;;;;27.58;18.00;;;;;;;3.45;100.00;97515.44;5059311;28;20878;-67
2024/01/17 04:39:00;;;;;;;27.33;18.23;;;;;;;3.52;100.00;97512.34;5056319;27;20038;-68
2024/01/17 04:41:25;;;;;;;28.02;17.58;;;;;;;3.30;99.79;97459.34;5076858;28;20804;-68
2024/01/17 04:43:53;;;;;;;27.67;17.83;;;;;;;3.42;100.00;97484.03;5064486;28;20052;-71
2024/01/17 04:46:21;;;;;;;28.63;16.85;;;;;;;3.47;98.06;97454.44;5089546;27;20019;-66
2024/01/17 04:48:46;;;;;;;25.80;15.80;;;;;;;3.51;96.85;97426.72;5065185;28;20056;-69
2024/01/17 04:51:12;;;;;;;24.05;16.02;;;;;;;3.58;97.45;97463.00;5077147;27;20036;-69
2024/01/17 04:53:43;;;;;;;25.30;15.52;;;;;;;3.63;97.29;97492.53;5056447;28;20027;-69
2024/01/17 04:56:10;;;;;;;24.95;16.15;;;;;;;3.17;98.24;97457.78;5060659;27;20039;-68
2024/01/17 04:58:38;;;;;;;28.13;16.15;;;;;;;3.54;97.28;97506.16;5059255;28;20083;-69
2024/01/17 05:01:05;;;;;;;25.45;16.30;;;;;;;3.57;96.44;97487.06;5063326;27;20048;-69
2024/01/17 05:03:33;;;;;;;25.95;15.85;;;;;;;3.58;96.06;97483.56;5058121;28;20035;-68
2024/01/17 05:06:01;;;;;;;29.45;16.92;;;;;;;3.53;97.57;97490.84;5062469;28;20028;-67
2024/01/17 05:08:31;;;;;;;25.83;16.02;;;;;;;3.65;97.28;97495.78;5058116;28;20045;-68
2024/01/17 05:10:57;;;;;;;22.83;15.40;;;;;;;3.58;98.08;97476.66;5071964;28;20027;-69
2024/01/17 05:13:22;;;;;;;24.70;16.08;;;;;;;3.53;98.32;97465.94;5080723;28;20044;-71
2024/01/17 05:15:48;;;;;;;27.52;16.45;;;;;;;3.80;97.77;97519.38;5061333;28;20027;-67
2024/01/17 05:18:13;;;;;;;28.73;15.85;;;;;;;3.69;98.09;97509.19;5063145;28;20035;-68
2024/01/17 05:20:39;;;;;;;27.95;17.02;;;;;;;3.78;96.60;97505.03;5078835;28;20075;-70
2024/01/17 05:23:04;;;;;;;26.73;17.45;;;;;;;3.81;97.51;97510.72;5064343;28;20035;-69
2024/01/17 05:25:32;;;;;;;25.80;16.10;;;;;;;3.52;97.69;97468.66;5081219;28;20034;-69
2024/01/17 05:27:58;;;;;;;23.88;16.35;;;;;;;3.50;97.16;97471.34;5057231;28;20027;-67
2024/01/17 05:30:24;;;;;;;24.95;17.30;;;;;;;3.84;97.81;97527.66;5078727;28;20050;-70
2024/01/17 05:32:50;;;;;;;25.88;16.02;;;;;;;3.83;98.46;97518.31;5057495;28;20599;-69
2024/01/17 05:35:21;;;;;;;25.00;16.27;;;;;;;3.77;99.29;97511.91;5058104;28;20027;-71
2024/01/17 05:37:46;;;;;;;26.27;16.33;;;;;;;3.71;98.41;97509.06;5092653;28;20414;-69
2024/01/17 05:40:12;;;;;;;26.73;16.85;;;;;;;3.72;100.00;97519.19;5076704;28;20031;-68
2024/01/17 05:42:39;;;;;;;25.70;17.35;;;;;;;3.74;100.00;97535.34;5059813;28;20047;-69
2024/01/17 05:45:07;;;;;;;25.02;16.85;;;;;;;3.74;100.00;97548.19;5059078;28;20067;-70
2024/01/17 05:47:38;;;;;;;24.42;16.77;;;;;;;3.81;100.00;97551.03;5075516;28;20052;-68
2024/01/17 05:50:11;;;;;;;28.70;16.85;;;;;;;3.82;100.00;97535.50;5051929;28;20028;-71
2024/01/17 05:52:45;;;;;;;24.15;16.45;;;;;;;3.78;100.00;97534.13;5062979;28;20043;-69
2024/01/17 05:55:16;;;;;;;27.55;16.80;;;;;;;3.87;100.00;97547.97;5069148;28;20039;-71
2024/01/17 05:57:44;;;;;;;27.17;17.33;;;;;;;3.80;100.00;97539.94;5060446;28;20080;-72
2024/01/17 06:00:13;;;;;;;25.98;17.20;;;;;;;3.84;100.00;97536.19;5055293;28;20039;-72
2024/01/17 06:02:40;;;;;;;28.85;18.75;;;;;;;3.60;100.00;97484.25;5069577;28;20039;-73
2024/01/17 06:05:07;;;;;;;27.27;17.38;;;;;;;3.88;100.00;97516.16;5050408;28;20035;-74
2024/01/17 06:07:36;;;;;;;29.95;18.27;;;;;;;3.96;100.00;97518.06;5051933;28;20035;-75
2024/01/17 06:10:02;;;;;;;27.48;17.85;;;;;;;3.98;100.00;97511.03;5075701;28;20114;-71
2024/01/17 06:12:31;;;;;;;26.02;18.02;;;;;;;3.99;100.00;97521.22;5056666;28;20060;-74
2024/01/17 06:14:56;;;;;;;28.77;18.00;;;;;;;3.95;100.00;97513.91;5055702;28;20139;-74
2024/01/17 06:17:22;;;;;;;27.73;17.88;;;;;;;3.77;100.00;97514.50;5074135;28;20036;-72
2024/01/17 06:19:54;;;;;;;29.75;18.90;;;;;;;3.83;100.00;97524.28;5076942;28;20111;-70
2024/01/17 06:22:20;;;;;;;27.80;17.90;;;;;;;3.87;100.00;97501.69;5072381;28;20719;-73
2024/01/17 06:24:46;;;;;;;33.90;18.63;;;;;;;3.94;100.00;97504.53;5063218;28;20020;-73
2024/01/17 06:27:12;;;;;;;30.42;18.88;;;;;;;3.91;100.00;97503.06;5072833;28;20040;-71
2024/01/17 06:29:45;;;;;;;31.25;19.30;;;;;;;3.96;100.00;97520.66;5061359;28;20090;-70
2024/01/17 06:32:13;;;;;;;32.33;19.17;;;;;;;3.97;100.00;97499.94;5057988;28;20486;-77
2024/01/17 06:34:39;;;;;;;28.27;17.92;;;;;;;3.95;100.00;97512.13;5066388;28;20031;-72
2024/01/17 06:37:07;;;;;;;28.80;18.00;;;;;;;4.00;100.00;97499.69;5074902;27;20040;-73
2024/01/17 06:39:33;;;;;;;30.45;19.00;;;;;;;3.97;100.00;97481.13;5063488;28;20032;-72
2024/01/17 06:41:59;;;;;;;31.23;19.63;;;;;;;3.91;100.00;97479.91;5058390;28;20871;-70
2024/01/17 06:44:27;;;;;;;29.90;18.55;;;;;;;4.04;100.00;97511.34;5074122;28;20020;-73
2024/01/17 06:46:53;;;;;;;29.65;18.20;;;;;;;4.02;100.00;97520.97;5080063;28;20744;-71
2024/01/17 06:49:18;;;;;;;30.17;18.10;;;;;;;4.00;100.00;97515.13;5076775;27;20037;-75
2024/01/17 06:51:44;;;;;;;29.52;19.50;;;;;;;3.99;100.00;97516.06;5075713;28;20028;-73
2024/01/17 06:54:09;;;;;;;29.00;19.25;;;;;;;3.59;100.00;97460.28;5074639;28;20100;-71
2024/01/17 06:56:37;;;;;;;29.77;19.63;;;;;;;3.93;100.00;97515.78;5096315;27;20028;-73
2024/01/17 06:59:04;;;;;;;30.08;19.05;;;;;;;3.91;100.00;97517.69;5061308;28;20011;-69
2024/01/17 07:01:35;;;;;;;29.15;20.50;;;;;;;3.94;100.00;97530.25;5073573;27;20032;-76
2024/01/17 07:04:01;;;;;;;32.67;20.08;;;;;;;3.61;100.00;97519.28;5059846;28;20039;-73
2024/01/17 07:06:29;;;;;;;34.03;20.75;;;;;;;3.63;100.00;97523.38;5081082;27;20554;-70
2024/01/17 07:08:54;;;;;;;31.00;19.92;;;;;;;3.74;100.00;97519.91;5064062;28;20106;-71
2024/01/17 07:11:20;;;;;;;31.63;19.52;;;;;;;3.83;100.00;97521.72;5072709;28;20033;-71
2024/01/17 07:13:48;;;;;;;30.30;18.75;;;;;;;3.83;100.00;97503.72;5065993;28;20043;-69
2024/01/17 07:16:15;;;;;;;32.30;20.20;;;;;;;3.94;100.00;97507.13;5034714;28;20128;-71
2024/01/17 07:18:40;;;;;;;29.75;18.92;;;;;;;3.70;100.00;97461.16;5056787;28;20549;-71
2024/01/17 07:21:11;;;;;;;31.67;20.20;;;;;;;3.79;100.00;97468.09;5051536;28;20114;-72
2024/01/17 07:23:39;;;;;;;27.70;18.92;;;;;;;3.93;100.00;97492.63;5039867;28;20029;-75
2024/01/17 07:26:05;;;;;;;32.80;20.13;;;;;;;3.83;100.00;97487.44;5040166;28;20395;-71
2024/01/17 07:28:30;;;;;;;29.33;19.65;;;;;;;4.03;100.00;97514.03;5030548;28;20038;-71
2024/01/17 07:31:01;;;;;;;29.08;18.88;;;;;;;3.91;100.00;97523.63;5077546;28;20394;-73
2024/01/17 07:33:26;;;;;;;28.80;19.30;;;;;;;3.57;100.00;97472.44;5073375;28;20128;-72
2024/01/17 07:35:54;;;;;;;30.35;20.52;;;;;;;3.92;100.00;97520.09;5075225;28;20047;-72
2024/01/17 07:38:20;;;;;;;32.03;20.50;;;;;;;3.98;100.00;97503.31;5031820;28;20067;-73
2024/01/17 07:40:46;;;;;;;32.33;20.88;;;;;;;3.30;100.00;97434.44;5036348;28;20128;-73
2024/01/17 07:43:11;;;;;;;29.83;19.92;;;;;;;3.71;100.00;97515.00;5031062;28;20032;-75
2024/01/17 07:45:41;;;;;;;32.22;20.60;;;;;;;3.40;100.00;97457.66;5028350;28;20039;-72
2024/01/17 07:48:07;;;;;;;27.98;18.98;;;;;;;3.86;100.00;97487.19;5059630;28;20028;-73
2024/01/17 07:50:32;;;;;;;32.17;20.38;;;;;;;3.92;100.00;97480.72;5033957;28;20174;-73
2024/01/17 07:53:02;;;;;;;32.65;20.88;;;;;;;3.93;100.00;97460.00;5052144;28;20024;-72
2024/01/17 07:55:28;;;;;;;34.15;20.63;;;;;;;3.68;100.00;97412.44;5048693;28;20040;-73
2024/01/17 07:57:54;;;;;;;33.63;21.45;;;;;;;3.99;100.00;97453.53;5067484;28;20075;-73
2024/01/17 08:00:19;;;;;;;32.28;20.05;;;;;;;4.03;100.00;97466.00;5051574;28;20039;-72
2024/01/17 08:02:45;;;;;;;31.67;20.45;;;;;;;3.88;100.00;97464.72;5051669;28;21427;-72
2024/01/17 08:05:12;;;;;;;30.50;20.33;;;;;;;3.90;100.00;97462.03;5040586;28;20032;-73
2024/01/17 08:07:37;;;;;;;32.33;20.40;;;;;;;3.89;100.00;97455.25;5053861;28;20021;-74
2024/01/17 08:10:02;;;;;;;32.47;20.08;;;;;;;3.95;100.00;97450.41;5039055;28;20675;-73
2024/01/17 08:12:30;;;;;;;34.25;19.75;;;;;;;4.04;100.00;97453.94;5053546;28;20050;-72
2024/01/17 08:14:55;;;;;;;31.70;18.98;;;;;;;4.08;100.00;97460.44;5078918;28;20120;-73
2024/01/17 08:17:23;;;;;;;32.15;20.95;;;;;;;4.04;100.00;97470.19;5068173;28;20028;-73
2024/01/17 08:19:49;;;;;;;33.05;20.45;;;;;;;3.99;100.00;97441.47;5074415;28;20037;-72
2024/01/17 08:22:14;;;;;;;30.65;19.85;;;;;;;4.16;100.00;97460.63;5074261;27;20032;-72
2024/01/17 08:24:41;;;;;;;32.60;21.20;;;;;;;4.15;100.00;97450.47;5074422;28;20023;-73
2024/01/17 08:27:08;;;;;;;32.13;20.48;;;;;;;3.95;100.00;97440.13;5061451;28;20092;-73
2024/01/17 08:29:34;;;;;;;33.13;19.35;;;;;;;3.90;100.00;97415.75;5069091;28;20103;-74
2024/01/17 08:31:59;;;;;;;33.72;20.10;;;;;;;4.02;100.00;97424.97;5076186;28;20149;-73
2024/01/17 08:34:27;;;;;;;31.63;20.23;;;;;;;3.90;100.00;97395.97;5068895;27;20463;-75
2024/01/17 08:36:55;;;;;;;30.77;20.33;;;;;;;4.23;100.00;97430.00;5070142;27;20023;-73
2024/01/17 08:39:23;;;;;;;29.65;18.92;;;;;;;4.19;100.00;97419.16;5091197;28;20505;-74
2024/01/17 08:41:50;;;;;;;28.58;18.48;;;;;;;4.16;100.00;97419.44;5078639;28;20015;-73
2024/01/17 08:44:18;;;;;;;32.15;18.40;;;;;;;3.96;100.00;97392.06;5075217;28;20060;-74
2024/01/17 08:46:45;;;;;;;26.45;17.75;;;;;;;4.00;100.00;97409.66;5074286;28;20046;-75
2024/01/17 08:49:12;;;;;;;27.27;17.48;;;;;;;3.93;100.00;97421.44;5061039;28;20035;-74
2024/01/17 08:51:38;;;;;;;28.38;18.30;;;;;;;4.02;100.00;97427.53;5073296;28;20020;-73
2024/01/17 08:54:06;;;;;;;30.30;19.15;;;;;;;3.96;100.00;97425.50;5064311;28;20396;-73
2024/01/17 08:56:32;;;;;;;25.80;16.95;;;;;;;4.01;100.00;97436.19;5075597;28;20467;-73
2024/01/17 08:58:58;;;;;;;29.05;18.00;;;;;;;3.92;100.00;97432.66;5098670;28;20096;-74
2024/01/17 09:01:25;;;;;;;28.27;18.20;;;;;;;4.01;100.00;97428.47;5075282;28;20039;-70
2024/01/17 09:03:51;;;;;;;26.90;17.40;;;;;;;3.82;100.00;97375.25;5076558;28;20573;-71
2024/01/17 09:06:17;;;;;;;28.90;17.23;;;;;;;4.23;100.00;97423.13;5059400;28;20039;-75
2024/01/17 09:08:44;;;;;;;27.27;18.60;;;;;;;4.25;100.00;97430.69;5043859;28;20041;-72
2024/01/17 09:11:13;;;;;;;25.88;17.67;;;;;;;4.07;100.00;97398.84;5065752;28;20027;-71
2024/01/17 09:13:39;;;;;;;27.67;17.83;;;;;;;4.11;100.00;97389.94;5061025;28;20044;-70
2024/01/17 09:16:09;;;;;;;27.15;18.08;;;;;;;4.37;100.00;97427.03;5083289;28;20089;-74
2024/01/17 09:18:34;;;;;;;28.30;17.90;;;;;;;4.37;100.00;97413.38;5064188;28;20038;-74
2024/01/17 09:21:00;;;;;;;26.23;17.48;;;;;;;4.38;100.00;97423.53;5059972;28;20024;-71
2024/01/17 09:23:25;;;;;;;27.33;17.23;;;;;;;4.38;100.00;97404.69;5047128;28;20725;-69
2024/01/17 09:25:50;;;;;;;26.77;18.30;;;;;;;4.43;100.00;97405.94;5043763;28;20237;-71
2024/01/17 09:28:16;;;;;;;29.38;18.15;;;;;;;4.46;100.00;97417.72;5044782;28;20023;-70
2024/01/17 09:30:41;;;;;;;26.80;18.00;;;;;;;4.09;100.00;97360.94;5057946;28;20029;-73
2024/01/17 09:33:09;;;;;;;28.90;17.70;;;;;;;4.45;100.00;97403.19;5077641;28;20035;-71
2024/01/17 09:35:38;;;;;;;29.55;18.67;;;;;;;4.49;100.00;97407.16;5044613;28;20019;-74
2024/01/17 09:38:06;;;;;;;29.00;18.35;;;;;;;4.48;100.00;97402.94;5060852;28;20410;-70
2024/01/17 09:40:34;;;;;;;28.77;19.60;;;;;;;4.55;100.00;97411.75;5062659;28;20024;-74
2024/01/17 09:43:06;;;;;;;31.58;19.73;;;;;;;4.63;100.00;97414.44;5065926;28;21059;-69
2024/01/17 09:45:34;;;;;;;29.42;20.45;;;;;;;4.66;100.00;97410.78;5054859;28;20883;-70
2024/01/17 09:48:04;;;;;;;31.80;19.83;;;;;;;4.74;100.00;97416.06;5045132;28;20143;-68
2024/01/17 09:50:30;;;;;;;28.70;19.88;;;;;;;4.59;100.00;97404.56;5053678;28;20091;-75
2024/01/17 09:52:59;;;;;;;30.05;20.08;;;;;;;4.58;100.00;97418.38;5048336;28;20023;-67
2024/01/17 09:55:26;;;;;;;29.23;18.42;;;;;;;4.44;100.00;97424.75;5049989;28;20036;-73
2024/01/17 09:57:56;;;;;;;32.60;20.05;;;;;;;4.49;100.00;97421.75;5043091;28;20956;-70
2024/01/17 10:00:22;;;;;;;29.17;19.42;;;;;;;4.47;100.00;97411.59;5051505;28;20024;-70
2024/01/17 10:02:47;;;;;;;32.83;20.25;;;;;;;4.45;100.00;97412.69;5071301;28;20115;-67
2024/01/17 10:05:14;;;;;;;33.78;20.73;;;;;;;4.52;100.00;97403.47;5050904;27;21120;-72
2024/01/17 10:07:39;;;;;;;29.95;18.75;;;;;;;4.57;100.00;97403.88;5066406;28;20114;-71
2024/01/17 10:10:05;;;;;;;29.42;19.67;;;;;;;4.60;100.00;97404.44;5053988;28;20351;-71
2024/01/17 10:12:33;;;;;;;27.15;17.90;;;;;;;4.72;100.00;97412.00;5064980;28;20102;-73
2024/01/17 10:15:05;;;;;;;28.40;19.20;;;;;;;4.73;100.00;97387.91;5059082;28;20035;-73
2024/01/17 10:17:34;;;;;;;33.05;20.23;;;;;;;4.75;100.00;97388.56;5061708;28;20039;-71
2024/01/17 10:20:04;;;;;;;30.85;20.50;;;;;;;4.55;100.00;97373.13;5061087;28;20035;-72
2024/01/17 10:22:32;;;;;;;31.27;20.02;;;;;;;4.37;100.00;97333.59;5074799;28;20189;-71
2024/01/17 10:25:01;;;;;;;31.83;19.38;;;;;;;4.42;100.00;97346.88;5055065;28;20028;-72
2024/01/17 10:27:27;;;;;;;29.20;19.63;;;;;;;4.41;100.00;97340.88;5072254;27;20036;-72
2024/01/17 10:29:53;;;;;;;30.40;20.08;;;;;;;4.75;100.00;97373.13;5068481;28;20027;-71
2024/01/17 10:32:18;;;;;;;31.60;20.00;;;;;;;4.79;100.00;97379.59;5084791;28;20071;-71
2024/01/17 10:34:44;;;;;;;29.35;19.77;;;;;;;4.77;100.00;97378.94;5062095;28;20831;-72
2024/01/17 10:37:14;;;;;;;25.88;18.52;;;;;;;4.65;100.00;97380.81;5072715;28;20019;-71
2024/01/17 10:39:43;;;;;;;29.85;19.40;;;;;;;4.65;100.00;97382.59;5083400;28;20191;-72
2024/01/17 10:42:20;;;;;;;30.33;18.55;;;;;;;4.74;100.00;97385.16;5080296;28;20062;-73
2024/01/17 10:44:45;;;;;;;26.50;18.13;;;;;;;4.73;100.00;97380.97;5067338;28;20035;-72
2024/01/17 10:47:11;;;;;;;28.63;19.20;;;;;;;4.80;100.00;97369.16;5075875;28;20032;-72
2024/01/17 10:49:43;;;;;;;30.00;18.52;;;;;;;4.65;100.00;97367.97;5078710;28;20250;-72
2024/01/17 10:52:13;;;;;;;29.17;19.70;;;;;;;4.41;100.00;97360.66;5062654;28;20028;-71
2024/01/17 10:54:51;;;;;;;29.55;19.52;;;;;;;4.63;100.00;97401.56;5082262;27;20069;-72
2024/01/17 10:57:20;;;;;;;27.63;17.85;;;;;;;4.53;100.00;97379.38;5057879;28;20023;-72
2024/01/17 10:59:49;;;;;;;29.95;19.40;;;;;;;4.43;100.00;97333.03;5053200;28;20032;-73
2024/01/17 11:02:21;;;;;;;29.92;18.73;;;;;;;4.82;100.00;97394.78;5056314;28;20495;-74
2024/01/17 11:04:55;;;;;;;34.33;19.88;;;;;;;4.50;100.00;97348.75;5067912;28;20028;-74
2024/01/17 11:07:22;;;;;;;30.75;19.65;;;;;;;4.80;100.00;97370.91;5057349;28;20019;-74
2024/01/17 11:09:48;;;;;;;31.80;20.38;;;;;;;4.57;100.00;97316.34;5074115;28;20092;-74
2024/01/17 11:12:17;;;;;;;29.02;19.83;;;;;;;4.77;100.00;97335.16;5049059;28;20726;-74
2024/01/17 11:14:47;;;;;;;27.70;19.02;;;;;;;4.78;100.00;97345.31;5050590;28;20051;-74
2024/01/17 11:17:17;;;;;;;29.77;19.77;;;;;;;4.73;100.00;97334.63;5064615;27;20020;-73
2024/01/17 11:19:43;;;;;;;;;;;;;;;4.77;100.00;97338.53;5044049;28;20603;-74